sensor_id;sensor_type;location;lat;lon;timestamp;P1;durP1;ratioP1;P2;durP2;ratioP2
15451;SDS011;7827;53.594;9.938;2023-02-11T00:01:28;46.97;;;26.53;;
15451;SDS011;7827;53.594;9.938;2023-02-11T00:03:58;46.43;;;26.50;;
15451;SDS011;7827;53.594;9.938;2023-02-11T00:06:28;45.97;;;25.43;;
15451;SDS011;7827;53.594;9.938;2023-02-11T00:08:57;49.00;;;25.60;;
15451;SDS011;7827;53.594;9.938;2023-02-11T00:11:27;49.90;;;26.23;;
15451;SDS011;7827;53.594;9.938;2023-02-11T00:13:56;48.20;;;25.13;;
15451;SDS011;7827;53.594;9.938;2023-02-11T00:16:27;48.20;;;24.43;;
15451;SDS011;7827;53.594;9.938;2023-02-11T00:18:57;43.20;;;24.07;;
15451;SDS011;7827;53.594;9.938;2023-02-11T00:21:27;43.60;;;25.10;;
15451;SDS011;7827;53.594;9.938;2023-02-11T00:23:55;49.27;;;22.47;;
15451;SDS011;7827;53.594;9.938;2023-02-11T00:26:26;48.07;;;25.30;;
15451;SDS011;7827;53.594;9.938;2023-02-11T00:28:59;44.27;;;24.47;;
15451;SDS011;7827;53.594;9.938;2023-02-11T00:31:30;44.20;;;26.47;;
15451;SDS011;7827;53.594;9.938;2023-02-11T00:33:58;47.30;;;23.30;;
15451;SDS011;7827;53.594;9.938;2023-02-11T00:36:28;48.30;;;26.60;;
15451;SDS011;7827;53.594;9.938;2023-02-11T00:38:57;44.33;;;23.87;;
15451;SDS011;7827;53.594;9.938;2023-02-11T00:41:28;44.47;;;25.17;;
15451;SDS011;7827;53.594;9.938;2023-02-11T00:43:58;50.20;;;26.50;;
15451;SDS011;7827;53.594;9.938;2023-02-11T00:46:26;49.77;;;27.13;;
15451;SDS011;7827;53.594;9.938;2023-02-11T00:48:55;45.70;;;24.73;;
15451;SDS011;7827;53.594;9.938;2023-02-11T00:51:32;51.03;;;25.00;;
15451;SDS011;7827;53.594;9.938;2023-02-11T00:54:02;49.23;;;25.87;;
15451;SDS011;7827;53.594;9.938;2023-02-11T00:56:32;44.33;;;25.97;;
15451;SDS011;7827;53.594;9.938;2023-02-11T00:59:01;47.57;;;26.53;;
15451;SDS011;7827;53.594;9.938;2023-02-11T01:01:29;50.73;;;27.10;;
15451;SDS011;7827;53.594;9.938;2023-02-11T01:03:57;54.10;;;28.03;;
15451;SDS011;7827;53.594;9.938;2023-02-11T01:06:26;44.97;;;25.53;;
15451;SDS011;7827;53.594;9.938;2023-02-11T01:08:54;52.77;;;28.27;;
15451;SDS011;7827;53.594;9.938;2023-02-11T01:11:23;47.20;;;27.00;;
15451;SDS011;7827;53.594;9.938;2023-02-11T01:13:53;52.17;;;27.63;;
15451;SDS011;7827;53.594;9.938;2023-02-11T01:16:21;49.83;;;28.23;;
15451;SDS011;7827;53.594;9.938;2023-02-11T01:18:51;47.43;;;26.40;;
15451;SDS011;7827;53.594;9.938;2023-02-11T01:21:20;56.27;;;26.33;;
15451;SDS011;7827;53.594;9.938;2023-02-11T01:23:49;56.67;;;29.30;;
15451;SDS011;7827;53.594;9.938;2023-02-11T01:26:19;50.70;;;28.03;;
15451;SDS011;7827;53.594;9.938;2023-02-11T01:28:48;52.53;;;26.70;;
15451;SDS011;7827;53.594;9.938;2023-02-11T01:31:19;53.83;;;25.97;;
15451;SDS011;7827;53.594;9.938;2023-02-11T01:33:47;52.97;;;28.03;;
15451;SDS011;7827;53.594;9.938;2023-02-11T01:36:16;56.03;;;30.20;;
15451;SDS011;7827;53.594;9.938;2023-02-11T01:38:44;49.30;;;28.23;;
15451;SDS011;7827;53.594;9.938;2023-02-11T01:41:13;54.30;;;28.73;;
15451;SDS011;7827;53.594;9.938;2023-02-11T01:43:42;49.90;;;28.73;;
15451;SDS011;7827;53.594;9.938;2023-02-11T01:46:16;56.33;;;29.40;;
15451;SDS011;7827;53.594;9.938;2023-02-11T01:48:58;55.67;;;27.40;;
15451;SDS011;7827;53.594;9.938;2023-02-11T01:51:33;54.47;;;29.83;;
15451;SDS011;7827;53.594;9.938;2023-02-11T01:54:06;59.90;;;29.50;;
15451;SDS011;7827;53.594;9.938;2023-02-11T01:56:57;53.20;;;28.13;;
15451;SDS011;7827;53.594;9.938;2023-02-11T01:59:47;48.00;;;28.37;;
15451;SDS011;7827;53.594;9.938;2023-02-11T02:02:45;58.10;;;28.60;;
15451;SDS011;7827;53.594;9.938;2023-02-11T02:05:23;62.43;;;29.10;;
15451;SDS011;7827;53.594;9.938;2023-02-11T02:08:02;51.13;;;27.47;;
15451;SDS011;7827;53.594;9.938;2023-02-11T02:10:35;60.50;;;30.17;;
15451;SDS011;7827;53.594;9.938;2023-02-11T02:13:08;53.57;;;27.57;;
15451;SDS011;7827;53.594;9.938;2023-02-11T02:15:37;49.97;;;27.57;;
15451;SDS011;7827;53.594;9.938;2023-02-11T02:18:14;48.97;;;27.73;;
15451;SDS011;7827;53.594;9.938;2023-02-11T02:30:40;53.43;;;27.10;;
15451;SDS011;7827;53.594;9.938;2023-02-11T02:33:37;58.47;;;28.90;;
15451;SDS011;7827;53.594;9.938;2023-02-11T02:36:17;52.67;;;27.03;;
15451;SDS011;7827;53.594;9.938;2023-02-11T02:38:52;40.60;;;22.07;;
15451;SDS011;7827;53.594;9.938;2023-02-11T02:41:27;49.53;;;27.30;;
15451;SDS011;7827;53.594;9.938;2023-02-11T02:44:00;53.13;;;25.40;;
15451;SDS011;7827;53.594;9.938;2023-02-11T02:46:29;49.63;;;24.70;;
15451;SDS011;7827;53.594;9.938;2023-02-11T02:49:02;65.03;;;27.93;;
15451;SDS011;7827;53.594;9.938;2023-02-11T02:51:45;47.73;;;26.00;;
15451;SDS011;7827;53.594;9.938;2023-02-11T02:54:44;48.77;;;25.33;;
15451;SDS011;7827;53.594;9.938;2023-02-11T02:57:31;47.87;;;25.27;;
15451;SDS011;7827;53.594;9.938;2023-02-11T03:00:21;48.37;;;26.47;;
15451;SDS011;7827;53.594;9.938;2023-02-11T03:03:04;44.47;;;23.07;;
15451;SDS011;7827;53.594;9.938;2023-02-11T03:05:55;56.17;;;25.97;;
15451;SDS011;7827;53.594;9.938;2023-02-11T03:08:32;48.47;;;26.37;;
15451;SDS011;7827;53.594;9.938;2023-02-11T03:11:07;50.67;;;27.20;;
15451;SDS011;7827;53.594;9.938;2023-02-11T03:13:39;42.50;;;21.03;;
15451;SDS011;7827;53.594;9.938;2023-02-11T03:16:11;49.57;;;22.00;;
15451;SDS011;7827;53.594;9.938;2023-02-11T03:18:45;43.57;;;23.67;;
15451;SDS011;7827;53.594;9.938;2023-02-11T03:21:20;52.87;;;23.50;;
15451;SDS011;7827;53.594;9.938;2023-02-11T03:23:52;47.57;;;22.27;;
15451;SDS011;7827;53.594;9.938;2023-02-11T03:26:22;46.57;;;24.97;;
15451;SDS011;7827;53.594;9.938;2023-02-11T03:29:05;46.77;;;26.20;;
15451;SDS011;7827;53.594;9.938;2023-02-11T03:31:44;51.73;;;24.53;;
15451;SDS011;7827;53.594;9.938;2023-02-11T03:34:24;44.57;;;22.50;;
15451;SDS011;7827;53.594;9.938;2023-02-11T03:37:01;46.17;;;22.97;;
15451;SDS011;7827;53.594;9.938;2023-02-11T03:39:35;49.17;;;22.53;;
15451;SDS011;7827;53.594;9.938;2023-02-11T03:42:09;46.77;;;22.27;;
15451;SDS011;7827;53.594;9.938;2023-02-11T03:44:42;39.87;;;22.23;;
15451;SDS011;7827;53.594;9.938;2023-02-11T03:51:49;47.57;;;21.13;;
15451;SDS011;7827;53.594;9.938;2023-02-11T03:54:22;51.30;;;23.03;;
15451;SDS011;7827;53.594;9.938;2023-02-11T03:56:57;43.47;;;21.73;;
15451;SDS011;7827;53.594;9.938;2023-02-11T03:59:28;46.40;;;19.00;;
15451;SDS011;7827;53.594;9.938;2023-02-11T04:01:57;42.33;;;20.30;;
15451;SDS011;7827;53.594;9.938;2023-02-11T04:04:25;49.90;;;22.80;;
15451;SDS011;7827;53.594;9.938;2023-02-11T04:06:54;40.00;;;20.17;;
15451;SDS011;7827;53.594;9.938;2023-02-11T04:09:26;42.87;;;20.23;;
15451;SDS011;7827;53.594;9.938;2023-02-11T04:11:55;35.70;;;18.10;;
15451;SDS011;7827;53.594;9.938;2023-02-11T04:14:23;48.17;;;20.93;;
15451;SDS011;7827;53.594;9.938;2023-02-11T04:16:51;36.57;;;17.73;;
15451;SDS011;7827;53.594;9.938;2023-02-11T04:19:19;43.13;;;19.10;;
15451;SDS011;7827;53.594;9.938;2023-02-11T04:21:48;54.07;;;19.30;;
15451;SDS011;7827;53.594;9.938;2023-02-11T04:24:16;41.00;;;19.77;;
15451;SDS011;7827;53.594;9.938;2023-02-11T04:26:46;35.10;;;17.67;;
15451;SDS011;7827;53.594;9.938;2023-02-11T04:29:14;37.30;;;18.57;;
15451;SDS011;7827;53.594;9.938;2023-02-11T04:31:42;40.13;;;18.20;;
15451;SDS011;7827;53.594;9.938;2023-02-11T04:34:11;40.53;;;17.53;;
15451;SDS011;7827;53.594;9.938;2023-02-11T04:36:40;41.40;;;17.77;;
15451;SDS011;7827;53.594;9.938;2023-02-11T04:39:08;38.00;;;17.33;;
15451;SDS011;7827;53.594;9.938;2023-02-11T04:41:36;33.77;;;14.67;;
15451;SDS011;7827;53.594;9.938;2023-02-11T04:44:06;38.87;;;17.60;;
15451;SDS011;7827;53.594;9.938;2023-02-11T04:46:35;38.13;;;16.73;;
15451;SDS011;7827;53.594;9.938;2023-02-11T04:49:03;36.57;;;16.80;;
15451;SDS011;7827;53.594;9.938;2023-02-11T04:51:31;37.77;;;17.10;;
15451;SDS011;7827;53.594;9.938;2023-02-11T04:54:00;38.80;;;16.87;;
15451;SDS011;7827;53.594;9.938;2023-02-11T04:56:28;32.70;;;15.70;;
15451;SDS011;7827;53.594;9.938;2023-02-11T04:58:56;35.93;;;16.77;;
15451;SDS011;7827;53.594;9.938;2023-02-11T05:01:26;35.47;;;15.63;;
15451;SDS011;7827;53.594;9.938;2023-02-11T05:03:55;38.13;;;15.77;;
15451;SDS011;7827;53.594;9.938;2023-02-11T05:06:24;35.43;;;16.30;;
15451;SDS011;7827;53.594;9.938;2023-02-11T05:08:53;36.30;;;17.57;;
15451;SDS011;7827;53.594;9.938;2023-02-11T05:11:22;27.33;;;14.10;;
15451;SDS011;7827;53.594;9.938;2023-02-11T05:13:52;38.17;;;16.33;;
15451;SDS011;7827;53.594;9.938;2023-02-11T05:16:20;40.73;;;18.37;;
15451;SDS011;7827;53.594;9.938;2023-02-11T05:18:50;38.57;;;17.50;;
15451;SDS011;7827;53.594;9.938;2023-02-11T05:21:19;31.47;;;17.17;;
15451;SDS011;7827;53.594;9.938;2023-02-11T05:23:47;45.07;;;18.40;;
15451;SDS011;7827;53.594;9.938;2023-02-11T05:26:16;34.53;;;17.63;;
15451;SDS011;7827;53.594;9.938;2023-02-11T05:28:45;32.37;;;16.27;;
15451;SDS011;7827;53.594;9.938;2023-02-11T05:31:13;32.37;;;16.37;;
15451;SDS011;7827;53.594;9.938;2023-02-11T05:33:42;33.93;;;17.37;;
15451;SDS011;7827;53.594;9.938;2023-02-11T05:36:12;32.77;;;16.67;;
15451;SDS011;7827;53.594;9.938;2023-02-11T05:38:42;31.03;;;16.13;;
15451;SDS011;7827;53.594;9.938;2023-02-11T05:41:10;34.33;;;16.87;;
15451;SDS011;7827;53.594;9.938;2023-02-11T05:43:39;28.67;;;15.63;;
15451;SDS011;7827;53.594;9.938;2023-02-11T05:46:07;32.87;;;15.70;;
15451;SDS011;7827;53.594;9.938;2023-02-11T05:48:36;32.20;;;16.70;;
15451;SDS011;7827;53.594;9.938;2023-02-11T05:51:04;35.30;;;16.23;;
15451;SDS011;7827;53.594;9.938;2023-02-11T05:53:34;25.93;;;14.20;;
15451;SDS011;7827;53.594;9.938;2023-02-11T05:56:02;29.70;;;14.67;;
15451;SDS011;7827;53.594;9.938;2023-02-11T05:58:31;31.87;;;17.03;;
15451;SDS011;7827;53.594;9.938;2023-02-11T06:01:00;34.53;;;16.47;;
15451;SDS011;7827;53.594;9.938;2023-02-11T06:03:28;23.03;;;10.47;;
15451;SDS011;7827;53.594;9.938;2023-02-11T06:05:57;33.07;;;16.30;;
15451;SDS011;7827;53.594;9.938;2023-02-11T06:08:25;30.23;;;14.50;;
15451;SDS011;7827;53.594;9.938;2023-02-11T06:10:55;26.43;;;14.63;;
15451;SDS011;7827;53.594;9.938;2023-02-11T06:13:23;32.17;;;15.73;;
15451;SDS011;7827;53.594;9.938;2023-02-11T06:15:55;31.07;;;15.73;;
15451;SDS011;7827;53.594;9.938;2023-02-11T06:18:23;30.60;;;15.13;;
15451;SDS011;7827;53.594;9.938;2023-02-11T06:20:52;25.97;;;15.67;;
15451;SDS011;7827;53.594;9.938;2023-02-11T06:23:20;25.93;;;15.23;;
15451;SDS011;7827;53.594;9.938;2023-02-11T06:25:49;29.10;;;16.17;;
15451;SDS011;7827;53.594;9.938;2023-02-11T06:28:19;29.90;;;17.33;;
15451;SDS011;7827;53.594;9.938;2023-02-11T06:30:48;24.93;;;16.43;;
15451;SDS011;7827;53.594;9.938;2023-02-11T06:33:16;35.20;;;16.07;;
15451;SDS011;7827;53.594;9.938;2023-02-11T06:35:44;23.50;;;15.63;;
15451;SDS011;7827;53.594;9.938;2023-02-11T06:38:12;29.27;;;14.37;;
15451;SDS011;7827;53.594;9.938;2023-02-11T06:40:45;27.10;;;15.30;;
15451;SDS011;7827;53.594;9.938;2023-02-11T06:43:14;26.00;;;13.27;;
15451;SDS011;7827;53.594;9.938;2023-02-11T06:45:50;30.27;;;16.50;;
15451;SDS011;7827;53.594;9.938;2023-02-11T06:48:20;25.90;;;14.07;;
15451;SDS011;7827;53.594;9.938;2023-02-11T06:50:49;29.13;;;16.03;;
15451;SDS011;7827;53.594;9.938;2023-02-11T06:53:17;26.13;;;16.13;;
15451;SDS011;7827;53.594;9.938;2023-02-11T06:55:45;32.50;;;15.77;;
15451;SDS011;7827;53.594;9.938;2023-02-11T06:58:14;30.97;;;15.67;;
15451;SDS011;7827;53.594;9.938;2023-02-11T07:00:42;22.57;;;14.33;;
15451;SDS011;7827;53.594;9.938;2023-02-11T07:03:12;30.47;;;16.40;;
15451;SDS011;7827;53.594;9.938;2023-02-11T07:05:41;25.57;;;15.87;;
15451;SDS011;7827;53.594;9.938;2023-02-11T07:08:10;26.43;;;14.87;;
15451;SDS011;7827;53.594;9.938;2023-02-11T07:10:38;27.53;;;16.40;;
15451;SDS011;7827;53.594;9.938;2023-02-11T07:13:06;27.70;;;16.20;;
15451;SDS011;7827;53.594;9.938;2023-02-11T07:15:35;18.63;;;12.97;;
15451;SDS011;7827;53.594;9.938;2023-02-11T07:18:05;32.30;;;16.47;;
15451;SDS011;7827;53.594;9.938;2023-02-11T07:20:33;36.83;;;17.33;;
15451;SDS011;7827;53.594;9.938;2023-02-11T07:23:04;23.17;;;13.37;;
15451;SDS011;7827;53.594;9.938;2023-02-11T07:25:32;31.33;;;16.83;;
15451;SDS011;7827;53.594;9.938;2023-02-11T07:28:02;29.20;;;15.70;;
15451;SDS011;7827;53.594;9.938;2023-02-11T07:30:30;29.57;;;16.40;;
15451;SDS011;7827;53.594;9.938;2023-02-11T07:32:59;24.70;;;16.60;;
15451;SDS011;7827;53.594;9.938;2023-02-11T07:35:29;27.80;;;16.30;;
15451;SDS011;7827;53.594;9.938;2023-02-11T07:37:57;30.43;;;16.93;;
15451;SDS011;7827;53.594;9.938;2023-02-11T07:40:25;23.57;;;16.10;;
15451;SDS011;7827;53.594;9.938;2023-02-11T07:42:54;27.50;;;17.20;;
15451;SDS011;7827;53.594;9.938;2023-02-11T07:45:22;30.30;;;17.07;;
15451;SDS011;7827;53.594;9.938;2023-02-11T07:47:51;42.80;;;18.57;;
15451;SDS011;7827;53.594;9.938;2023-02-11T07:50:19;36.23;;;17.37;;
15451;SDS011;7827;53.594;9.938;2023-02-11T07:52:49;30.57;;;16.90;;
15451;SDS011;7827;53.594;9.938;2023-02-11T07:55:17;30.97;;;17.53;;
15451;SDS011;7827;53.594;9.938;2023-02-11T07:57:45;26.87;;;13.60;;
15451;SDS011;7827;53.594;9.938;2023-02-11T08:00:14;31.63;;;18.27;;
15451;SDS011;7827;53.594;9.938;2023-02-11T08:02:46;33.00;;;18.57;;
15451;SDS011;7827;53.594;9.938;2023-02-11T08:05:14;34.63;;;18.60;;
15451;SDS011;7827;53.594;9.938;2023-02-11T08:07:43;25.20;;;15.73;;
15451;SDS011;7827;53.594;9.938;2023-02-11T08:10:12;32.17;;;17.73;;
15451;SDS011;7827;53.594;9.938;2023-02-11T08:12:41;33.50;;;17.67;;
15451;SDS011;7827;53.594;9.938;2023-02-11T08:15:09;35.33;;;19.13;;
15451;SDS011;7827;53.594;9.938;2023-02-11T08:17:38;39.87;;;18.33;;
15451;SDS011;7827;53.594;9.938;2023-02-11T08:20:06;28.77;;;16.67;;
15451;SDS011;7827;53.594;9.938;2023-02-11T08:22:35;29.43;;;16.70;;
15451;SDS011;7827;53.594;9.938;2023-02-11T08:25:03;35.20;;;18.80;;
15451;SDS011;7827;53.594;9.938;2023-02-11T08:27:34;29.27;;;18.80;;
15451;SDS011;7827;53.594;9.938;2023-02-11T08:30:02;39.87;;;18.67;;
15451;SDS011;7827;53.594;9.938;2023-02-11T08:32:33;36.77;;;18.40;;
15451;SDS011;7827;53.594;9.938;2023-02-11T08:35:01;33.93;;;18.63;;
15451;SDS011;7827;53.594;9.938;2023-02-11T08:37:29;38.27;;;19.60;;
15451;SDS011;7827;53.594;9.938;2023-02-11T08:39:59;35.50;;;18.03;;
15451;SDS011;7827;53.594;9.938;2023-02-11T08:42:27;29.97;;;17.80;;
15451;SDS011;7827;53.594;9.938;2023-02-11T08:44:57;32.83;;;18.57;;
15451;SDS011;7827;53.594;9.938;2023-02-11T08:47:25;30.80;;;17.50;;
15451;SDS011;7827;53.594;9.938;2023-02-11T08:49:53;31.90;;;18.07;;
15451;SDS011;7827;53.594;9.938;2023-02-11T08:52:21;32.07;;;17.67;;
15451;SDS011;7827;53.594;9.938;2023-02-11T08:54:50;38.37;;;17.33;;
15451;SDS011;7827;53.594;9.938;2023-02-11T08:57:18;33.90;;;18.53;;
15451;SDS011;7827;53.594;9.938;2023-02-11T08:59:46;31.67;;;17.50;;
15451;SDS011;7827;53.594;9.938;2023-02-11T09:02:16;32.70;;;17.80;;
15451;SDS011;7827;53.594;9.938;2023-02-11T09:04:44;29.70;;;16.90;;
15451;SDS011;7827;53.594;9.938;2023-02-11T09:07:13;31.83;;;17.83;;
15451;SDS011;7827;53.594;9.938;2023-02-11T09:09:41;30.73;;;16.43;;
15451;SDS011;7827;53.594;9.938;2023-02-11T09:12:09;25.97;;;16.33;;
15451;SDS011;7827;53.594;9.938;2023-02-11T09:14:37;26.60;;;15.77;;
15451;SDS011;7827;53.594;9.938;2023-02-11T09:17:07;29.87;;;16.20;;
15451;SDS011;7827;53.594;9.938;2023-02-11T09:19:37;31.13;;;15.67;;
15451;SDS011;7827;53.594;9.938;2023-02-11T09:22:05;32.57;;;14.40;;
15451;SDS011;7827;53.594;9.938;2023-02-11T09:24:33;25.93;;;15.57;;
15451;SDS011;7827;53.594;9.938;2023-02-11T09:27:02;29.77;;;14.77;;
15451;SDS011;7827;53.594;9.938;2023-02-11T09:29:32;29.43;;;15.77;;
15451;SDS011;7827;53.594;9.938;2023-02-11T09:32:00;32.77;;;16.43;;
15451;SDS011;7827;53.594;9.938;2023-02-11T09:34:29;35.00;;;15.90;;
15451;SDS011;7827;53.594;9.938;2023-02-11T09:36:59;31.03;;;14.20;;
15451;SDS011;7827;53.594;9.938;2023-02-11T09:39:28;30.17;;;15.50;;
15451;SDS011;7827;53.594;9.938;2023-02-11T09:42:10;30.47;;;14.80;;
15451;SDS011;7827;53.594;9.938;2023-02-11T09:45:04;29.63;;;15.43;;
15451;SDS011;7827;53.594;9.938;2023-02-11T09:47:46;29.63;;;14.03;;
15451;SDS011;7827;53.594;9.938;2023-02-11T09:50:21;33.13;;;14.20;;
15451;SDS011;7827;53.594;9.938;2023-02-11T09:52:59;27.80;;;12.77;;
15451;SDS011;7827;53.594;9.938;2023-02-11T09:55:31;31.03;;;12.60;;
15451;SDS011;7827;53.594;9.938;2023-02-11T09:58:06;26.83;;;12.67;;
15451;SDS011;7827;53.594;9.938;2023-02-11T10:00:42;34.60;;;13.43;;
15451;SDS011;7827;53.594;9.938;2023-02-11T10:03:25;23.37;;;12.00;;
15451;SDS011;7827;53.594;9.938;2023-02-11T10:06:34;28.57;;;13.40;;
15451;SDS011;7827;53.594;9.938;2023-02-11T10:09:16;29.87;;;11.77;;
15451;SDS011;7827;53.594;9.938;2023-02-11T10:11:58;26.77;;;11.87;;
15451;SDS011;7827;53.594;9.938;2023-02-11T10:14:51;28.77;;;11.40;;
15451;SDS011;7827;53.594;9.938;2023-02-11T10:17:37;29.40;;;10.87;;
15451;SDS011;7827;53.594;9.938;2023-02-11T10:20:21;34.97;;;12.40;;
15451;SDS011;7827;53.594;9.938;2023-02-11T10:22:58;34.83;;;10.77;;
15451;SDS011;7827;53.594;9.938;2023-02-11T10:25:37;21.70;;;7.67;;
15451;SDS011;7827;53.594;9.938;2023-02-11T10:28:12;33.10;;;10.63;;
15451;SDS011;7827;53.594;9.938;2023-02-11T10:30:45;28.87;;;10.13;;
15451;SDS011;7827;53.594;9.938;2023-02-11T10:33:24;30.03;;;10.17;;
15451;SDS011;7827;53.594;9.938;2023-02-11T10:35:57;20.97;;;9.67;;
15451;SDS011;7827;53.594;9.938;2023-02-11T10:38:26;28.80;;;9.87;;
15451;SDS011;7827;53.594;9.938;2023-02-11T10:40:56;30.77;;;9.93;;
15451;SDS011;7827;53.594;9.938;2023-02-11T10:43:25;24.33;;;9.73;;
15451;SDS011;7827;53.594;9.938;2023-02-11T10:45:57;25.30;;;10.13;;
15451;SDS011;7827;53.594;9.938;2023-02-11T10:48:37;29.53;;;10.10;;
15451;SDS011;7827;53.594;9.938;2023-02-11T10:51:16;25.97;;;9.17;;
15451;SDS011;7827;53.594;9.938;2023-02-11T10:53:48;26.87;;;8.07;;
15451;SDS011;7827;53.594;9.938;2023-02-11T10:56:43;25.10;;;9.20;;
15451;SDS011;7827;53.594;9.938;2023-02-11T10:59:16;32.87;;;9.97;;
15451;SDS011;7827;53.594;9.938;2023-02-11T11:01:55;27.33;;;8.83;;
15451;SDS011;7827;53.594;9.938;2023-02-11T11:04:39;25.13;;;8.53;;
15451;SDS011;7827;53.594;9.938;2023-02-11T11:07:12;27.87;;;9.23;;
15451;SDS011;7827;53.594;9.938;2023-02-11T11:09:49;24.20;;;8.63;;
15451;SDS011;7827;53.594;9.938;2023-02-11T11:12:25;13.67;;;7.33;;
15451;SDS011;7827;53.594;9.938;2023-02-11T11:14:59;22.97;;;7.87;;
15451;SDS011;7827;53.594;9.938;2023-02-11T11:17:30;23.60;;;8.10;;
15451;SDS011;7827;53.594;9.938;2023-02-11T11:20:15;21.87;;;8.63;;
15451;SDS011;7827;53.594;9.938;2023-02-11T11:22:53;23.83;;;7.90;;
15451;SDS011;7827;53.594;9.938;2023-02-11T11:25:43;23.00;;;7.70;;
15451;SDS011;7827;53.594;9.938;2023-02-11T11:28:27;18.73;;;7.30;;
15451;SDS011;7827;53.594;9.938;2023-02-11T11:30:59;15.77;;;6.67;;
15451;SDS011;7827;53.594;9.938;2023-02-11T11:33:28;17.10;;;6.73;;
15451;SDS011;7827;53.594;9.938;2023-02-11T11:36:02;20.00;;;6.87;;
15451;SDS011;7827;53.594;9.938;2023-02-11T11:38:35;18.97;;;6.20;;
15451;SDS011;7827;53.594;9.938;2023-02-11T11:41:14;16.50;;;6.20;;
15451;SDS011;7827;53.594;9.938;2023-02-11T11:44:00;21.33;;;6.67;;
15451;SDS011;7827;53.594;9.938;2023-02-11T11:46:43;20.10;;;7.03;;
15451;SDS011;7827;53.594;9.938;2023-02-11T11:49:21;17.67;;;6.47;;
15451;SDS011;7827;53.594;9.938;2023-02-11T11:51:57;20.83;;;6.43;;
15451;SDS011;7827;53.594;9.938;2023-02-11T11:54:41;18.77;;;7.33;;
15451;SDS011;7827;53.594;9.938;2023-02-11T11:57:15;16.13;;;7.07;;
15451;SDS011;7827;53.594;9.938;2023-02-11T11:59:53;12.90;;;5.63;;
15451;SDS011;7827;53.594;9.938;2023-02-11T12:02:29;20.67;;;7.17;;
15451;SDS011;7827;53.594;9.938;2023-02-11T12:05:21;19.30;;;6.63;;
15451;SDS011;7827;53.594;9.938;2023-02-11T12:07:56;20.30;;;6.33;;
15451;SDS011;7827;53.594;9.938;2023-02-11T12:10:43;19.27;;;7.47;;
15451;SDS011;7827;53.594;9.938;2023-02-11T12:13:32;15.93;;;5.93;;
15451;SDS011;7827;53.594;9.938;2023-02-11T12:16:21;13.97;;;5.03;;
15451;SDS011;7827;53.594;9.938;2023-02-11T12:22:18;17.43;;;6.00;;
15451;SDS011;7827;53.594;9.938;2023-02-11T12:25:11;19.93;;;5.53;;
15451;SDS011;7827;53.594;9.938;2023-02-11T12:27:57;14.40;;;5.70;;
15451;SDS011;7827;53.594;9.938;2023-02-11T12:31:10;12.53;;;5.07;;
15451;SDS011;7827;53.594;9.938;2023-02-11T12:37:04;16.97;;;4.97;;
15451;SDS011;7827;53.594;9.938;2023-02-11T12:39:49;12.27;;;5.07;;
15451;SDS011;7827;53.594;9.938;2023-02-11T12:42:37;15.30;;;5.07;;
15451;SDS011;7827;53.594;9.938;2023-02-11T12:45:45;12.20;;;4.30;;
15451;SDS011;7827;53.594;9.938;2023-02-11T12:48:41;12.80;;;4.70;;
15451;SDS011;7827;53.594;9.938;2023-02-11T12:51:32;17.47;;;5.13;;
15451;SDS011;7827;53.594;9.938;2023-02-11T12:54:25;18.03;;;4.80;;
15451;SDS011;7827;53.594;9.938;2023-02-11T12:57:02;16.07;;;5.63;;
15451;SDS011;7827;53.594;9.938;2023-02-11T12:59:40;16.23;;;4.77;;
15451;SDS011;7827;53.594;9.938;2023-02-11T13:02:23;19.07;;;5.67;;
15451;SDS011;7827;53.594;9.938;2023-02-11T13:05:09;16.60;;;5.87;;
15451;SDS011;7827;53.594;9.938;2023-02-11T13:07:50;14.20;;;5.03;;
15451;SDS011;7827;53.594;9.938;2023-02-11T13:10:25;16.67;;;4.80;;
15451;SDS011;7827;53.594;9.938;2023-02-11T13:12:58;10.70;;;4.57;;
15451;SDS011;7827;53.594;9.938;2023-02-11T13:15:49;15.37;;;4.57;;
15451;SDS011;7827;53.594;9.938;2023-02-11T13:18:31;15.20;;;5.27;;
15451;SDS011;7827;53.594;9.938;2023-02-11T13:21:18;12.30;;;4.97;;
15451;SDS011;7827;53.594;9.938;2023-02-11T13:24:08;16.67;;;5.83;;
15451;SDS011;7827;53.594;9.938;2023-02-11T13:26:56;15.77;;;5.37;;
15451;SDS011;7827;53.594;9.938;2023-02-11T13:29:38;18.27;;;5.60;;
15451;SDS011;7827;53.594;9.938;2023-02-11T13:33:15;16.20;;;5.63;;
15451;SDS011;7827;53.594;9.938;2023-02-11T13:35:48;15.67;;;5.17;;
15451;SDS011;7827;53.594;9.938;2023-02-11T13:38:55;18.70;;;5.87;;
15451;SDS011;7827;53.594;9.938;2023-02-11T13:41:29;26.20;;;6.60;;
15451;SDS011;7827;53.594;9.938;2023-02-11T13:44:12;21.73;;;6.57;;
15451;SDS011;7827;53.594;9.938;2023-02-11T13:46:51;29.13;;;6.57;;
15451;SDS011;7827;53.594;9.938;2023-02-11T13:49:29;29.97;;;6.33;;
15451;SDS011;7827;53.594;9.938;2023-02-11T13:52:04;30.30;;;6.93;;
15451;SDS011;7827;53.594;9.938;2023-02-11T13:54:47;27.47;;;6.60;;
15451;SDS011;7827;53.594;9.938;2023-02-11T13:57:26;24.43;;;6.67;;
15451;SDS011;7827;53.594;9.938;2023-02-11T14:00:05;24.63;;;6.90;;
15451;SDS011;7827;53.594;9.938;2023-02-11T14:03:21;29.43;;;6.47;;
15451;SDS011;7827;53.594;9.938;2023-02-11T14:06:23;23.97;;;5.67;;
15451;SDS011;7827;53.594;9.938;2023-02-11T14:09:35;25.33;;;6.53;;
15451;SDS011;7827;53.594;9.938;2023-02-11T14:12:21;21.87;;;5.87;;
15451;SDS011;7827;53.594;9.938;2023-02-11T14:17:47;35.50;;;7.07;;
15451;SDS011;7827;53.594;9.938;2023-02-11T14:23:15;25.23;;;6.83;;
15451;SDS011;7827;53.594;9.938;2023-02-11T14:25:55;30.90;;;6.83;;
15451;SDS011;7827;53.594;9.938;2023-02-11T14:28:47;31.07;;;6.63;;
15451;SDS011;7827;53.594;9.938;2023-02-11T14:31:21;23.80;;;6.90;;
15451;SDS011;7827;53.594;9.938;2023-02-11T14:34:03;28.67;;;6.60;;
15451;SDS011;7827;53.594;9.938;2023-02-11T14:36:56;23.90;;;6.13;;
15451;SDS011;7827;53.594;9.938;2023-02-11T14:39:47;29.67;;;6.20;;
15451;SDS011;7827;53.594;9.938;2023-02-11T14:42:28;25.90;;;6.60;;
15451;SDS011;7827;53.594;9.938;2023-02-11T14:45:02;25.10;;;5.87;;
15451;SDS011;7827;53.594;9.938;2023-02-11T14:47:39;23.80;;;5.97;;
15451;SDS011;7827;53.594;9.938;2023-02-11T14:50:17;23.83;;;5.87;;
15451;SDS011;7827;53.594;9.938;2023-02-11T14:52:51;23.83;;;6.53;;
15451;SDS011;7827;53.594;9.938;2023-02-11T14:55:26;19.40;;;6.27;;
15451;SDS011;7827;53.594;9.938;2023-02-11T15:00:53;20.23;;;5.70;;
15451;SDS011;7827;53.594;9.938;2023-02-11T15:03:26;20.73;;;5.47;;
15451;SDS011;7827;53.594;9.938;2023-02-11T15:06:06;14.70;;;5.20;;
15451;SDS011;7827;53.594;9.938;2023-02-11T15:08:44;17.93;;;5.23;;
15451;SDS011;7827;53.594;9.938;2023-02-11T15:11:18;16.43;;;5.20;;
15451;SDS011;7827;53.594;9.938;2023-02-11T15:13:50;18.00;;;5.80;;
15451;SDS011;7827;53.594;9.938;2023-02-11T15:16:22;19.00;;;6.30;;
15451;SDS011;7827;53.594;9.938;2023-02-11T15:18:55;18.60;;;5.87;;
15451;SDS011;7827;53.594;9.938;2023-02-11T15:21:30;21.23;;;5.97;;
15451;SDS011;7827;53.594;9.938;2023-02-11T15:24:02;18.07;;;5.03;;
15451;SDS011;7827;53.594;9.938;2023-02-11T15:26:54;21.77;;;6.53;;
15451;SDS011;7827;53.594;9.938;2023-02-11T15:29:27;20.40;;;5.87;;
15451;SDS011;7827;53.594;9.938;2023-02-11T15:32:11;25.70;;;6.70;;
15451;SDS011;7827;53.594;9.938;2023-02-11T15:34:44;26.50;;;7.40;;
15451;SDS011;7827;53.594;9.938;2023-02-11T15:37:16;22.17;;;7.50;;
15451;SDS011;7827;53.594;9.938;2023-02-11T15:39:48;25.73;;;7.10;;
15451;SDS011;7827;53.594;9.938;2023-02-11T15:42:24;28.63;;;7.63;;
15451;SDS011;7827;53.594;9.938;2023-02-11T15:45:07;29.03;;;7.80;;
15451;SDS011;7827;53.594;9.938;2023-02-11T15:47:51;27.30;;;7.30;;
15451;SDS011;7827;53.594;9.938;2023-02-11T15:50:24;24.57;;;7.80;;
15451;SDS011;7827;53.594;9.938;2023-02-11T15:52:56;23.40;;;6.00;;